Thunder radar more information blitzortung!


Radar de pluja more information rain snow radar


Visita la nostra xarxa de llocs de meteo:

Template documentation
and downloads

And another site



No particular awareness of the weather is required.    There are no Weather-warnings

Pagina Historial Weather Underground text

Diari Resum Juny 6, 2017 Unitats:  Mètric    Imperial   Tant
« Previous Dia
SegĂźent Dia »
Diari Setmana Mensual Anual Personalitzada
  Maxima: Minima: Media:
Temperatura: -17.8 °C -8.3 °C -5.2 °C
Punt de rosada: -17.8 °C -11.9 °C -10.2 °C
Humitat: Humidity % 33 % 58 %
Wind Speed: 0 km/h 0 km/h 16.3 km/h
RĂ fegues de vent: 0 km/h - -
Vent:- - SSE
Pression baro: 0 hPa 34222.3 hPa -
Precipitacions: 0 mm    
Historical Graphs
 
 
Dades de taula per Juny 6, 2017
Temps Temperatura Punt de rosada Pression baro Vent Wind Speed RĂ fegues de vent Humitat Rainfall Rate (Hourly)
-17.8 °C -17.8 °C 0 hPa Calm     Humidity % 0 mm
00:01 -8.1 °C -11.9 °C 34256.2 hPa SW 11.9 km/h 11.9 km/h 64 % 0 mm
00:06 -8.1 °C -11.9 °C 34256.2 hPa WSW 11.9 km/h 11.9 km/h 64 % 0 mm
03:05 -8.1 °C -11 °C 34222.3 hPa SW 5.1 km/h 7.7 km/h 71 % 0 mm
03:15 -7.8 °C -10.9 °C 34222.3 hPa SW 5.1 km/h 7.7 km/h 70 % 0 mm
03:25 -7.4 °C -10.7 °C 34222.3 hPa SW 2.6 km/h 10.3 km/h 69 % 0 mm
03:35 -7.2 °C -10.6 °C 34222.3 hPa SW 5.1 km/h 7.7 km/h 68 % 0 mm
03:45 -7 °C -10.2 °C 34222.3 hPa SW 5.1 km/h 7.7 km/h 69 % 0 mm
03:55 -6.9 °C -10.3 °C 34222.3 hPa SW 7.7 km/h 10.3 km/h 68 % 0 mm
04:05 -6.7 °C -10.3 °C 34222.3 hPa WSW 7.7 km/h 10.3 km/h 66 % 0 mm
04:15 -6.2 °C -9.9 °C 34256.2 hPa SW 7.7 km/h 7.7 km/h 66 % 0 mm
04:25 -6.1 °C -9.8 °C 34256.2 hPa SW 5.1 km/h 10.3 km/h 65 % 0 mm
04:35 -5.5 °C -9.6 °C 34256.2 hPa SSW 5.1 km/h 5.1 km/h 63 % 0 mm
04:45 -5.6 °C -9.6 °C 34256.2 hPa SW 5.1 km/h 12.9 km/h 64 % 0 mm
04:55 -5.6 °C -9.8 °C 34256.2 hPa WNW 5.1 km/h 7.7 km/h 62 % 0 mm
05:05 -5.4 °C -10.1 °C 34256.2 hPa NNE 7.7 km/h 7.7 km/h 59 % 0 mm
05:15 -5.2 °C -9.9 °C 34256.2 hPa ENE 5.1 km/h 7.7 km/h 59 % 0 mm
05:25 -5 °C -10.3 °C 34256.2 hPa East 5.1 km/h 10.3 km/h 55 % 0 mm
10:33 -4.7 °C -10.2 °C 34256.2 hPa East 11.9 km/h 11.9 km/h 54 % 0 mm
10:38 -4.7 °C -10.1 °C 34256.2 hPa NNE 10.3 km/h 10.3 km/h 55 % 0 mm
10:43 -4.8 °C -10.3 °C 34256.2 hPa East 9.3 km/h 9.3 km/h 54 % 0 mm
10:48 -4.7 °C -9.9 °C 34256.2 hPa NE 9 km/h 9 km/h 55 % 0 mm
10:53 -4.4 °C -10.1 °C 34256.2 hPa ESE 9 km/h 9 km/h 53 % 0 mm
10:58 -4.3 °C -9.9 °C 34256.2 hPa NE 6 km/h 6 km/h 53 % 0 mm
11:03 -4.2 °C -10.2 °C 34256.2 hPa ESE 9.3 km/h 9.3 km/h 51 % 0 mm
11:08 -4.1 °C -9.9 °C 34256.2 hPa WSW 6.3 km/h 6.3 km/h 52 % 0 mm
11:13 -3.6 °C -9.8 °C 34256.2 hPa SW 6.3 km/h 6.3 km/h 50 % 0 mm
11:18 -3.3 °C -9.6 °C 34293.4 hPa WSW 7.6 km/h 7.6 km/h 50 % 0 mm
11:23 -3.3 °C -9.7 °C 34293.4 hPa NNW 9 km/h 9 km/h 49 % 0 mm
11:28 -2.9 °C -9.3 °C 34293.4 hPa SSW 9.8 km/h 9.8 km/h 49 % 0 mm
11:33 -2.8 °C -9.5 °C 34256.2 hPa West 9 km/h 9 km/h 48 % 0 mm
11:38 -2.8 °C -9.6 °C 34256.2 hPa WSW 9 km/h 9 km/h 47 % 0 mm
11:43 -2.9 °C -9.8 °C 34256.2 hPa WSW 23.8 km/h 23.8 km/h 47 % 0 mm
11:48 -2.8 °C -9.9 °C 34256.2 hPa SW 9 km/h 9 km/h 45 % 0 mm
11:53 -2.7 °C -9.9 °C 34256.2 hPa West 9 km/h 9 km/h 45 % 0 mm
11:58 -2.6 °C -9.8 °C 34256.2 hPa SW 6.8 km/h 6.8 km/h 45 % 0 mm
12:03 -2.7 °C -10.3 °C 34222.3 hPa WSW 17.9 km/h 17.9 km/h 43 % 0 mm
12:08 -2.8 °C -10.4 °C 34222.3 hPa WNW 11.9 km/h 11.9 km/h 43 % 0 mm
12:13 -2.5 °C -10.1 °C 34222.3 hPa SSW 6 km/h 6 km/h 43 % 0 mm
12:18 -2.4 °C -10.1 °C 34222.3 hPa WSW 9 km/h 9 km/h 43 % 0 mm
12:23 -2.3 °C -10.1 °C 34222.3 hPa ESE 6 km/h 6.3 km/h 42 % 0 mm
12:28 -2.3 °C -10.1 °C 34222.3 hPa SW 11.9 km/h 11.9 km/h 42 % 0 mm
12:33 -2.3 °C -10.2 °C 34222.3 hPa WSW 14 km/h 14 km/h 42 % 0 mm
12:38 -2.3 °C -10.6 °C 34222.3 hPa SSW 17.9 km/h 17.9 km/h 40 % 0 mm
12:43 -2.2 °C -10.2 °C 34222.3 hPa SSW 16.6 km/h 16.6 km/h 41 % 0 mm
12:48 -1.9 °C -10.2 °C 34222.3 hPa WSW 9.3 km/h 9.3 km/h 40 % 0 mm
12:53 -2.1 °C -10.6 °C 34222.3 hPa ESE 6 km/h 6 km/h 39 % 0 mm
12:54 -2.2 °C -10.7 °C 34222.3 hPa ESE 6 km/h 6 km/h 39 % 0 mm
12:59 -2.2 °C -10.4 °C 34222.3 hPa West 9.8 km/h 9.8 km/h 40 % 0 mm
13:04 -1.8 °C -10.1 °C 34222.3 hPa West 15 km/h 15 km/h 40 % 0 mm
13:09 -1.8 °C -10.1 °C 34222.3 hPa SW 11.9 km/h 11.9 km/h 40 % 0 mm
13:10 -1.7 °C -10.2 °C 34222.3 hPa WSW 10.3 km/h 10.3 km/h 39 % 0 mm
13:15 -1.6 °C -10.3 °C 34222.3 hPa NW 11.9 km/h 11.9 km/h 38 % 0 mm
13:20 -1.9 °C -10.4 °C 34222.3 hPa NNW 9 km/h 9 km/h 39 % 0 mm
13:25 -2 °C -10.5 °C 34222.3 hPa SSE 9.3 km/h 9.3 km/h 39 % 0 mm
13:30 -2 °C -10.7 °C 34222.3 hPa NNW 6 km/h 6.3 km/h 38 % 0 mm
13:35 -2.1 °C -10.8 °C 34222.3 hPa NW 8 km/h 8 km/h 38 % 0 mm
13:40 -2.1 °C -10.8 °C 34222.3 hPa WNW 6.8 km/h 6.8 km/h 38 % 0 mm
13:45 -2.2 °C -10.9 °C 34222.3 hPa ESE 6 km/h 6 km/h 38 % 0 mm
13:50 -1.8 °C -10.3 °C 34222.3 hPa SW 11.9 km/h 11.9 km/h 39 % 0 mm
13:55 -1.6 °C -10.6 °C 34222.3 hPa SW 9 km/h 9 km/h 37 % 0 mm
14:00 -1.7 °C -10.7 °C 34222.3 hPa WSW 11.9 km/h 11.9 km/h 37 % 0 mm
14:05 -1.4 °C -10.7 °C 34222.3 hPa South 15 km/h 15 km/h 36 % 0 mm
14:07 -1.3 °C -10.6 °C 34222.3 hPa West 15 km/h 15 km/h 36 % 0 mm
14:12 -1.4 °C -10.9 °C 34222.3 hPa North 11.9 km/h 11.9 km/h 35 % 0 mm
14:17 -1.2 °C -10.5 °C 34222.3 hPa SW 20.9 km/h 20.9 km/h 36 % 0 mm
14:22 -1.4 °C -11.4 °C 34256.2 hPa ESE 17.9 km/h 17.9 km/h 33 % 0 mm
14:27 -1.1 °C -10.8 °C 34256.2 hPa West 15 km/h 15 km/h 34 % 0 mm
14:32 -1.1 °C -11.1 °C 34256.2 hPa WSW 11.9 km/h 11.9 km/h 33 % 0 mm
14:37 -1.4 °C -11.4 °C 34222.3 hPa SW 15 km/h 15 km/h 33 % 0 mm
14:42 -1.5 °C -11.5 °C 34222.3 hPa West 15 km/h 15 km/h 33 % 0 mm
14:47 -1.6 °C -11.6 °C 34222.3 hPa WNW 6 km/h 6 km/h 33 % 0 mm
14:52 -1.7 °C -11.6 °C 34256.2 hPa SSW 11.9 km/h 11.9 km/h 33 % 0 mm
14:57 -1.8 °C -11.4 °C 34256.2 hPa ENE 6 km/h 6 km/h 34 % 0 mm
15:02 -1.7 °C -11.4 °C 34256.2 hPa SW 6 km/h 6 km/h 34 % 0 mm
15:07 -1.8 °C -11.8 °C 34256.2 hPa NE 9 km/h 9 km/h 33 % 0 mm
15:12 -1.9 °C -11.6 °C 34256.2 hPa NW 9 km/h 9 km/h 34 % 0 mm
15:17 -1.9 °C -11.3 °C 34256.2 hPa ENE 17.9 km/h 17.9 km/h 35 % 0 mm
15:22 -2.4 °C -11.8 °C 34222.3 hPa ESE 50.7 km/h 50.7 km/h 35 % 0 mm
15:27 -3 °C -11.4 °C 34222.3 hPa NNE 51.5 km/h 51.5 km/h 39 % 0 mm
15:32 -3.7 °C -11.8 °C 34222.3 hPa East 20.9 km/h 20.9 km/h 40 % 0 mm
15:37 -4 °C -11.7 °C 34222.3 hPa ESE 27.2 km/h 27.2 km/h 42 % 0 mm
15:42 -4.1 °C -11.3 °C 34222.3 hPa East 32.3 km/h 32.3 km/h 44 % 0 mm
15:47 -4.1 °C -11.2 °C 34222.3 hPa ENE 20.9 km/h 20.9 km/h 45 % 0 mm
15:52 -4.2 °C -11.1 °C 34256.2 hPa East 33.6 km/h 33.6 km/h 46 % 0 mm
15:57 -4.3 °C -11 °C 34256.2 hPa ENE 26.9 km/h 26.9 km/h 47 % 0 mm
16:02 -4.5 °C -11.2 °C 34256.2 hPa NNE 20.9 km/h 20.9 km/h 47 % 0 mm
16:07 -4.4 °C -10.9 °C 34256.2 hPa NNW 26.9 km/h 26.9 km/h 48 % 0 mm
16:12 -4.3 °C -10.8 °C 34256.2 hPa NNE 32.8 km/h 32.8 km/h 48 % 0 mm
16:17 -4.2 °C -10.7 °C 34256.2 hPa East 25.9 km/h 25.9 km/h 48 % 0 mm
16:22 -4.3 °C -10.7 °C 34256.2 hPa East 34.1 km/h 34.1 km/h 49 % 0 mm
16:27 -4.3 °C -10.7 °C 34256.2 hPa NNE 23.8 km/h 23.8 km/h 49 % 0 mm
16:32 -4.4 °C -10.4 °C 34256.2 hPa NE 35.7 km/h 35.7 km/h 51 % 0 mm
16:37 -4.4 °C -10.4 °C 34256.2 hPa ENE 32.8 km/h 32.8 km/h 51 % 0 mm
16:42 -4.3 °C -10.2 °C 34256.2 hPa ENE 28.2 km/h 28.2 km/h 52 % 0 mm
16:47 -4.5 °C -10.3 °C 34256.2 hPa NNW 26.9 km/h 26.9 km/h 52 % 0 mm
16:52 -4.6 °C -10.2 °C 34256.2 hPa East 26.9 km/h 26.9 km/h 53 % 0 mm
16:57 -4.4 °C -10.1 °C 34256.2 hPa NNE 23.8 km/h 23.8 km/h 53 % 0 mm
17:02 -4.5 °C -10 °C 34256.2 hPa NE 26.9 km/h 26.9 km/h 54 % 0 mm
17:07 -4.6 °C -9.8 °C 34293.4 hPa ENE 23.8 km/h 23.8 km/h 56 % 0 mm
17:12 -4.7 °C -9.7 °C 34293.4 hPa ESE 26.9 km/h 26.9 km/h 57 % 0 mm
17:17 -4.8 °C -9.6 °C 34293.4 hPa ENE 26.9 km/h 26.9 km/h 58 % 0 mm
17:22 -4.7 °C -9.4 °C 34293.4 hPa East 26.9 km/h 26.9 km/h 59 % 0 mm
17:27 -4.7 °C -9.4 °C 34293.4 hPa ENE 23.8 km/h 23.8 km/h 59 % 0 mm
17:32 -4.8 °C -9.3 °C 34293.4 hPa East 23.8 km/h 23.8 km/h 60 % 0 mm
17:37 -4.9 °C -9.3 °C 34293.4 hPa North 38.8 km/h 38.8 km/h 61 % 0 mm
17:42 -4.9 °C -9.2 °C 34293.4 hPa ENE 32.8 km/h 32.8 km/h 62 % 0 mm
17:47 -5.1 °C -9.2 °C 34293.4 hPa ENE 38.8 km/h 38.8 km/h 63 % 0 mm
17:52 -5.1 °C -9.2 °C 34293.4 hPa ESE 26.9 km/h 26.9 km/h 63 % 0 mm
17:57 -5.1 °C -9.4 °C 34293.4 hPa East 23.8 km/h 23.8 km/h 62 % 0 mm
18:02 -5.2 °C -9.4 °C 34293.4 hPa East 38.8 km/h 38.8 km/h 62 % 0 mm
18:07 -5.3 °C -9.6 °C 34293.4 hPa ENE 23.8 km/h 23.8 km/h 62 % 0 mm
18:12 -5.3 °C -9.7 °C 34293.4 hPa ESE 26.9 km/h 26.9 km/h 61 % 0 mm
18:17 -5.4 °C -9.8 °C 34293.4 hPa East 28.2 km/h 28.2 km/h 61 % 0 mm
18:22 -5.5 °C -9.9 °C 34327.3 hPa East 38.8 km/h 38.8 km/h 61 % 0 mm
18:27 -5.4 °C -9.8 °C 34327.3 hPa ESE 20.3 km/h 20.3 km/h 61 % 0 mm
18:32 -5.4 °C -9.8 °C 34327.3 hPa SE 26.9 km/h 26.9 km/h 61 % 0 mm
18:37 -5.5 °C -9.9 °C 34327.3 hPa ENE 23.8 km/h 23.8 km/h 61 % 0 mm
18:42 -5.4 °C -9.8 °C 34327.3 hPa ESE 20.9 km/h 20.9 km/h 61 % 0 mm
18:47 -5.5 °C -9.9 °C 34327.3 hPa ENE 33.6 km/h 33.6 km/h 61 % 0 mm
18:52 -5.7 °C -9.9 °C 34327.3 hPa ESE 31.9 km/h 31.9 km/h 62 % 0 mm
18:57 -5.7 °C -9.8 °C 34327.3 hPa ESE 27.7 km/h 27.7 km/h 63 % 0 mm
19:02 -5.9 °C -9.8 °C 34327.3 hPa SE 35.7 km/h 35.7 km/h 64 % 0 mm
19:07 -6 °C -9.8 °C 34293.4 hPa ESE 25.4 km/h 25.4 km/h 65 % 0 mm
19:12 -5.9 °C -9.8 °C 34293.4 hPa ESE 29.8 km/h 29.8 km/h 65 % 0 mm
19:15 -7.3 °C -9.9 °C 34256.2 hPa SE 5.1 km/h 5.1 km/h 74 % 0 mm
19:17 -6.1 °C -9.8 °C 34293.4 hPa ESE 32.8 km/h 32.8 km/h 66 % 0 mm
19:20 -6.2 °C -9.8 °C 34293.4 hPa East 32.8 km/h 32.8 km/h 66 % 0 mm
19:25 -6.2 °C -9.8 °C 34293.4 hPa SE 26.9 km/h 26.9 km/h 67 % 0 mm
19:30 -6.2 °C -9.8 °C 34293.4 hPa ESE 32.8 km/h 32.8 km/h 67 % 0 mm
19:35 -6.2 °C -9.8 °C 34327.3 hPa NE 20.9 km/h 20.9 km/h 67 % 0 mm
19:40 -6.3 °C -9.8 °C 34327.3 hPa ESE 32.8 km/h 32.8 km/h 67 % 0 mm
19:45 -6.3 °C -9.8 °C 34327.3 hPa East 15.3 km/h 15.3 km/h 67 % 0 mm
19:50 -6.4 °C -9.9 °C 34327.3 hPa ESE 26.9 km/h 26.9 km/h 67 % 0 mm
19:55 -6.4 °C -9.8 °C 34327.3 hPa ESE 20.9 km/h 20.9 km/h 68 % 0 mm
20:00 -6.4 °C -9.8 °C 34327.3 hPa ESE 20.9 km/h 20.9 km/h 68 % 0 mm
20:05 -6.4 °C -9.8 °C 34327.3 hPa ESE 35.7 km/h 35.7 km/h 68 % 0 mm
20:10 -6.5 °C -9.9 °C 34327.3 hPa ENE 23.8 km/h 23.8 km/h 68 % 0 mm
20:15 -6.6 °C -9.9 °C 34327.3 hPa ESE 32.3 km/h 32.3 km/h 68 % 0 mm
20:20 -6.6 °C -9.9 °C 34361.1 hPa ESE 23.8 km/h 23.8 km/h 69 % 0 mm
20:25 -6.7 °C -9.9 °C 34361.1 hPa East 17.9 km/h 17.9 km/h 69 % 0 mm
20:30 -6.7 °C -9.9 °C 34361.1 hPa SE 19.6 km/h 19.6 km/h 69 % 0 mm
20:35 -6.7 °C -9.9 °C 34361.1 hPa ESE 29.5 km/h 29.5 km/h 69 % 0 mm
20:40 -6.7 °C -9.7 °C 34361.1 hPa ESE 23.8 km/h 23.8 km/h 71 % 0 mm
20:45 -6.7 °C -9.7 °C 34361.1 hPa ESE 9 km/h 9 km/h 71 % 0 mm
20:50 -6.7 °C -9.8 °C 34361.1 hPa ESE 17.9 km/h 17.9 km/h 70 % 0 mm
20:55 -6.8 °C -9.8 °C 34361.1 hPa SE 15 km/h 15 km/h 71 % 0 mm
21:00 -6.7 °C -9.7 °C 34361.1 hPa ESE 20.3 km/h 20.3 km/h 71 % 0 mm
21:05 -6.8 °C -9.8 °C 34361.1 hPa ESE 23.8 km/h 23.8 km/h 71 % 0 mm
21:10 -6.9 °C -9.8 °C 34361.1 hPa East 17.9 km/h 17.9 km/h 72 % 0 mm
21:15 -6.9 °C -9.8 °C 34361.1 hPa East 20.9 km/h 20.9 km/h 72 % 0 mm
21:20 -6.9 °C -9.8 °C 34395 hPa ESE 20.9 km/h 20.9 km/h 72 % 0 mm
21:25 -6.9 °C -9.8 °C 34395 hPa ENE 23.8 km/h 23.8 km/h 72 % 0 mm
21:30 -7 °C -9.9 °C 34395 hPa ENE 15 km/h 15 km/h 72 % 0 mm
21:35 -7 °C -9.8 °C 34395 hPa ESE 15 km/h 15 km/h 73 % 0 mm
21:40 -7.1 °C -9.8 °C 34395 hPa ESE 23.8 km/h 23.8 km/h 73 % 0 mm
21:45 -7.1 °C -9.8 °C 34395 hPa East 15 km/h 15 km/h 73 % 0 mm
21:50 -7.1 °C -9.8 °C 34395 hPa SSE 20.9 km/h 20.9 km/h 73 % 0 mm
21:52 -7.1 °C -9.8 °C 34395 hPa East 17.9 km/h 17.9 km/h 73 % 0 mm
21:55 -8.2 °C -10.4 °C 34462.7 hPa WSW 2.6 km/h 5.1 km/h 77 % 0 mm
21:57 -7.1 °C -9.8 °C 34395 hPa ESE 11.9 km/h 11.9 km/h 73 % 0 mm
22:02 -7.1 °C -9.7 °C 34395 hPa SSE 11.9 km/h 11.9 km/h 74 % 0 mm
22:05 -8.2 °C -10.4 °C 34462.7 hPa WSW 2.6 km/h 5.1 km/h 77 % 0 mm
22:07 -7.1 °C -9.7 °C 34395 hPa ESE 15 km/h 15 km/h 74 % 0 mm
22:12 -7.1 °C -9.7 °C 34395 hPa SSW 11.9 km/h 11.9 km/h 74 % 0 mm
22:15 -8.2 °C -10.3 °C 34462.7 hPa Calm   5.1 km/h 78 % 0 mm
22:17 -7.1 °C -9.8 °C 34395 hPa SSE 20.9 km/h 20.9 km/h 73 % 0 mm
22:22 -7.1 °C -9.8 °C 34395 hPa ESE 9 km/h 9 km/h 74 % 0 mm
22:25 -8.2 °C -10.3 °C 34462.7 hPa West 2.6 km/h 2.6 km/h 78 % 0 mm
22:27 -7.1 °C -9.8 °C 34395 hPa ESE 9 km/h 9 km/h 74 % 0 mm
22:32 -7.1 °C -9.8 °C 34395 hPa ENE 11.9 km/h 11.9 km/h 74 % 0 mm
22:35 -8.2 °C -10.2 °C 34462.7 hPa West 2.6 km/h 2.6 km/h 79 % 0 mm
22:37 -7.2 °C -9.8 °C 34395 hPa ESE 11.9 km/h 11.9 km/h 74 % 0 mm
22:42 -7.2 °C -9.8 °C 34395 hPa ESE 15 km/h 15 km/h 74 % 0 mm
22:45 -8.1 °C -10.2 °C 34462.7 hPa Calm   2.6 km/h 79 % 0 mm
22:47 -7.2 °C -9.8 °C 34395 hPa ESE 20.9 km/h 20.9 km/h 74 % 0 mm
22:52 -7.2 °C -9.8 °C 34428.8 hPa ESE 10.3 km/h 10.3 km/h 74 % 0 mm
22:55 -8.2 °C -10.2 °C 34462.7 hPa WSW 5.1 km/h 5.1 km/h 79 % 0 mm
22:57 -7.2 °C -9.8 °C 34428.8 hPa ESE 14 km/h 14 km/h 74 % 0 mm
23:02 -7.2 °C -9.8 °C 34428.8 hPa ENE 15 km/h 15 km/h 74 % 0 mm
23:05 -8.3 °C -10.2 °C 34462.7 hPa Calm   5.1 km/h 80 % 0 mm
23:07 -7.2 °C -9.8 °C 34428.8 hPa ESE 15 km/h 15 km/h 74 % 0 mm
23:12 -7.2 °C -9.8 °C 34428.8 hPa SE 11.9 km/h 11.9 km/h 74 % 0 mm
23:15 -8.3 °C -10.2 °C 34462.7 hPa Calm   5.1 km/h 80 % 0 mm
23:17 -7.2 °C -9.8 °C 34428.8 hPa ESE 14.5 km/h 14.5 km/h 74 % 0 mm
23:22 -7.2 °C -9.8 °C 34428.8 hPa ESE 17.9 km/h 17.9 km/h 74 % 0 mm
23:25 -8.3 °C -10.2 °C 34496.6 hPa Calm   2.6 km/h 80 % 0 mm
23:27 -7.3 °C -9.8 °C 34428.8 hPa ENE 11.9 km/h 11.9 km/h 75 % 0 mm
23:32 -7.3 °C -9.8 °C 34428.8 hPa ESE 15 km/h 15 km/h 75 % 0 mm
23:35 -8.3 °C -10.2 °C 34496.6 hPa Calm     81 % 0 mm
23:37 -7.3 °C -9.8 °C 34428.8 hPa NNE 9 km/h 9 km/h 75 % 0 mm
23:42 -7.2 °C -9.9 °C 34428.8 hPa SE 6 km/h 6 km/h 73 % 0 mm
23:45 -8.3 °C -10.1 °C 34496.6 hPa Calm     81 % 0 mm
23:47 -7.2 °C -9.8 °C 34428.8 hPa ESE 11.9 km/h 11.9 km/h 74 % 0 mm
23:52 -7.2 °C -9.9 °C 34462.7 hPa ESE 6 km/h 6 km/h 73 % 0 mm
23:55 -8.3 °C -10.2 °C 34496.6 hPa Calm     81 % 0 mm
23:57 -7.2 °C -9.9 °C 34462.7 hPa East 9 km/h 9 km/h 73 % 0 mm
23:58 -7.2 °C -9.9 °C 34462.7 hPa South 9 km/h 9 km/h 73 % 0 mm
Meteo Sesrovires
Elogis d' Weather Underground - 2 mb

Guio original per  Jim McMurry - jmcmurry@mwt.net Adaptat per a la plantilla per  Wim van der Kuil - Leuven-Template.eu

Trobareu la nostra informacio del temps tambe a:

Weather Underground

AWEKAS